sensor_id;sensor_type;location;lat;lon;timestamp;P1;durP1;ratioP1;P2;durP2;ratioP2
74503;SDS011;62988;55.776;37.544;2023-06-22T00:01:16;17.63;;;5.53;;
74503;SDS011;62988;55.776;37.544;2023-06-22T00:03:41;17.27;;;5.20;;
74503;SDS011;62988;55.776;37.544;2023-06-22T00:06:07;16.50;;;4.93;;
74503;SDS011;62988;55.776;37.544;2023-06-22T00:08:32;15.60;;;4.73;;
74503;SDS011;62988;55.776;37.544;2023-06-22T00:10:57;14.27;;;4.30;;
74503;SDS011;62988;55.776;37.544;2023-06-22T00:13:23;13.33;;;5.10;;
74503;SDS011;62988;55.776;37.544;2023-06-22T00:15:48;15.93;;;5.07;;
74503;SDS011;62988;55.776;37.544;2023-06-22T00:18:13;24.33;;;6.15;;
74503;SDS011;62988;55.776;37.544;2023-06-22T00:20:39;20.43;;;5.93;;
74503;SDS011;62988;55.776;37.544;2023-06-22T00:23:05;18.30;;;5.18;;
74503;SDS011;62988;55.776;37.544;2023-06-22T00:27:59;15.27;;;4.73;;
74503;SDS011;62988;55.776;37.544;2023-06-22T00:30:24;20.30;;;5.50;;
74503;SDS011;62988;55.776;37.544;2023-06-22T00:32:49;18.13;;;5.17;;
74503;SDS011;62988;55.776;37.544;2023-06-22T00:35:15;11.20;;;4.50;;
74503;SDS011;62988;55.776;37.544;2023-06-22T00:37:40;17.25;;;5.38;;
74503;SDS011;62988;55.776;37.544;2023-06-22T00:40:07;16.23;;;5.30;;
74503;SDS011;62988;55.776;37.544;2023-06-22T00:42:37;23.73;;;5.18;;
74503;SDS011;62988;55.776;37.544;2023-06-22T00:45:02;17.58;;;5.00;;
74503;SDS011;62988;55.776;37.544;2023-06-22T00:47:27;13.40;;;4.18;;
74503;SDS011;62988;55.776;37.544;2023-06-22T00:49:53;13.73;;;4.78;;
74503;SDS011;62988;55.776;37.544;2023-06-22T00:52:21;18.40;;;4.90;;
74503;SDS011;62988;55.776;37.544;2023-06-22T00:54:52;12.20;;;4.15;;
74503;SDS011;62988;55.776;37.544;2023-06-22T00:57:17;12.53;;;5.07;;
74503;SDS011;62988;55.776;37.544;2023-06-22T00:59:47;17.02;;;4.18;;
74503;SDS011;62988;55.776;37.544;2023-06-22T01:02:12;17.88;;;4.57;;
74503;SDS011;62988;55.776;37.544;2023-06-22T01:04:38;12.23;;;3.92;;
74503;SDS011;62988;55.776;37.544;2023-06-22T01:12:18;18.30;;;5.03;;
74503;SDS011;62988;55.776;37.544;2023-06-22T01:14:47;14.18;;;5.65;;
74503;SDS011;62988;55.776;37.544;2023-06-22T01:17:15;14.48;;;4.32;;
74503;SDS011;62988;55.776;37.544;2023-06-22T01:19:45;15.38;;;4.70;;
74503;SDS011;62988;55.776;37.544;2023-06-22T01:22:13;16.52;;;4.93;;
74503;SDS011;62988;55.776;37.544;2023-06-22T01:29:48;16.35;;;4.90;;
74503;SDS011;62988;55.776;37.544;2023-06-22T01:32:14;21.20;;;4.80;;
74503;SDS011;62988;55.776;37.544;2023-06-22T01:34:39;15.35;;;5.13;;
74503;SDS011;62988;55.776;37.544;2023-06-22T01:37:05;16.63;;;5.20;;
74503;SDS011;62988;55.776;37.544;2023-06-22T01:39:31;17.67;;;5.65;;
74503;SDS011;62988;55.776;37.544;2023-06-22T01:41:56;18.63;;;4.32;;
74503;SDS011;62988;55.776;37.544;2023-06-22T01:44:22;14.37;;;4.93;;
74503;SDS011;62988;55.776;37.544;2023-06-22T01:46:48;17.90;;;4.22;;
74503;SDS011;62988;55.776;37.544;2023-06-22T01:49:14;14.98;;;4.55;;
74503;SDS011;62988;55.776;37.544;2023-06-22T01:51:39;12.50;;;4.30;;
74503;SDS011;62988;55.776;37.544;2023-06-22T01:54:05;13.83;;;4.03;;
74503;SDS011;62988;55.776;37.544;2023-06-22T01:56:31;18.58;;;5.35;;
74503;SDS011;62988;55.776;37.544;2023-06-22T01:59:14;17.20;;;4.10;;
74503;SDS011;62988;55.776;37.544;2023-06-22T02:01:49;14.80;;;3.97;;
74503;SDS011;62988;55.776;37.544;2023-06-22T02:04:22;13.00;;;4.03;;
74503;SDS011;62988;55.776;37.544;2023-06-22T02:06:50;18.80;;;4.00;;
74503;SDS011;62988;55.776;37.544;2023-06-22T02:09:16;19.23;;;4.05;;
74503;SDS011;62988;55.776;37.544;2023-06-22T02:11:44;15.27;;;4.28;;
74503;SDS011;62988;55.776;37.544;2023-06-22T02:14:09;12.75;;;3.80;;
74503;SDS011;62988;55.776;37.544;2023-06-22T02:16:35;20.17;;;5.47;;
74503;SDS011;62988;55.776;37.544;2023-06-22T02:19:02;17.23;;;4.72;;
74503;SDS011;62988;55.776;37.544;2023-06-22T02:21:28;19.25;;;4.00;;
74503;SDS011;62988;55.776;37.544;2023-06-22T02:23:54;26.23;;;4.57;;
74503;SDS011;62988;55.776;37.544;2023-06-22T02:26:19;45.33;;;5.72;;
74503;SDS011;62988;55.776;37.544;2023-06-22T02:28:44;34.63;;;5.57;;
74503;SDS011;62988;55.776;37.544;2023-06-22T02:31:11;18.17;;;5.35;;
74503;SDS011;62988;55.776;37.544;2023-06-22T02:33:36;21.15;;;4.45;;
74503;SDS011;62988;55.776;37.544;2023-06-22T02:36:01;17.35;;;4.47;;
74503;SDS011;62988;55.776;37.544;2023-06-22T02:38:30;20.88;;;4.82;;
74503;SDS011;62988;55.776;37.544;2023-06-22T02:40:59;18.77;;;4.40;;
74503;SDS011;62988;55.776;37.544;2023-06-22T02:43:25;23.15;;;4.25;;
74503;SDS011;62988;55.776;37.544;2023-06-22T02:45:50;19.88;;;3.72;;
74503;SDS011;62988;55.776;37.544;2023-06-22T02:48:15;12.98;;;4.00;;
74503;SDS011;62988;55.776;37.544;2023-06-22T02:50:41;19.33;;;4.20;;
74503;SDS011;62988;55.776;37.544;2023-06-22T02:53:06;18.90;;;4.23;;
74503;SDS011;62988;55.776;37.544;2023-06-22T02:55:31;18.47;;;4.57;;
74503;SDS011;62988;55.776;37.544;2023-06-22T02:57:56;12.57;;;4.63;;
74503;SDS011;62988;55.776;37.544;2023-06-22T03:00:24;15.90;;;3.60;;
74503;SDS011;62988;55.776;37.544;2023-06-22T03:02:55;12.18;;;4.45;;
74503;SDS011;62988;55.776;37.544;2023-06-22T03:05:20;14.05;;;4.10;;
74503;SDS011;62988;55.776;37.544;2023-06-22T03:07:45;19.40;;;4.20;;
74503;SDS011;62988;55.776;37.544;2023-06-22T03:10:11;13.75;;;3.92;;
74503;SDS011;62988;55.776;37.544;2023-06-22T03:12:37;12.00;;;3.97;;
74503;SDS011;62988;55.776;37.544;2023-06-22T03:15:04;14.98;;;3.72;;
74503;SDS011;62988;55.776;37.544;2023-06-22T03:17:30;12.35;;;4.43;;
74503;SDS011;62988;55.776;37.544;2023-06-22T03:19:55;9.60;;;4.00;;
74503;SDS011;62988;55.776;37.544;2023-06-22T03:22:20;10.27;;;4.00;;
74503;SDS011;62988;55.776;37.544;2023-06-22T03:24:46;12.00;;;3.93;;
74503;SDS011;62988;55.776;37.544;2023-06-22T03:27:11;13.73;;;4.27;;
74503;SDS011;62988;55.776;37.544;2023-06-22T03:29:36;7.20;;;3.33;;
74503;SDS011;62988;55.776;37.544;2023-06-22T03:32:02;12.15;;;3.38;;
74503;SDS011;62988;55.776;37.544;2023-06-22T03:34:28;14.30;;;3.35;;
74503;SDS011;62988;55.776;37.544;2023-06-22T03:36:53;12.47;;;3.80;;
74503;SDS011;62988;55.776;37.544;2023-06-22T03:39:19;10.23;;;3.40;;
74503;SDS011;62988;55.776;37.544;2023-06-22T03:41:45;10.40;;;3.80;;
74503;SDS011;62988;55.776;37.544;2023-06-22T03:44:10;10.17;;;3.97;;
74503;SDS011;62988;55.776;37.544;2023-06-22T03:46:37;9.90;;;3.20;;
74503;SDS011;62988;55.776;37.544;2023-06-22T03:49:02;11.68;;;3.63;;
74503;SDS011;62988;55.776;37.544;2023-06-22T03:51:28;6.72;;;3.95;;
74503;SDS011;62988;55.776;37.544;2023-06-22T03:53:53;11.30;;;4.22;;
74503;SDS011;62988;55.776;37.544;2023-06-22T03:56:18;15.33;;;3.60;;
74503;SDS011;62988;55.776;37.544;2023-06-22T03:58:45;12.63;;;2.97;;
74503;SDS011;62988;55.776;37.544;2023-06-22T04:01:11;13.45;;;4.07;;
74503;SDS011;62988;55.776;37.544;2023-06-22T04:03:36;9.87;;;3.33;;
74503;SDS011;62988;55.776;37.544;2023-06-22T04:06:02;11.68;;;3.22;;
74503;SDS011;62988;55.776;37.544;2023-06-22T04:08:27;13.15;;;3.97;;
74503;SDS011;62988;55.776;37.544;2023-06-22T04:10:52;8.17;;;3.63;;
74503;SDS011;62988;55.776;37.544;2023-06-22T04:13:18;10.85;;;3.30;;
74503;SDS011;62988;55.776;37.544;2023-06-22T04:15:44;10.05;;;3.22;;
74503;SDS011;62988;55.776;37.544;2023-06-22T04:18:09;8.10;;;3.23;;
74503;SDS011;62988;55.776;37.544;2023-06-22T04:20:35;15.13;;;3.33;;
74503;SDS011;62988;55.776;37.544;2023-06-22T04:23:00;7.73;;;2.80;;
74503;SDS011;62988;55.776;37.544;2023-06-22T04:25:25;8.38;;;3.22;;
74503;SDS011;62988;55.776;37.544;2023-06-22T04:27:51;9.68;;;3.05;;
74503;SDS011;62988;55.776;37.544;2023-06-22T04:30:16;5.53;;;2.80;;
74503;SDS011;62988;55.776;37.544;2023-06-22T04:32:42;8.43;;;3.28;;
74503;SDS011;62988;55.776;37.544;2023-06-22T04:35:08;5.95;;;2.72;;
74503;SDS011;62988;55.776;37.544;2023-06-22T04:37:33;5.38;;;2.72;;
74503;SDS011;62988;55.776;37.544;2023-06-22T04:39:59;9.68;;;3.00;;
74503;SDS011;62988;55.776;37.544;2023-06-22T04:42:27;5.95;;;2.65;;
74503;SDS011;62988;55.776;37.544;2023-06-22T04:44:53;5.25;;;3.10;;
74503;SDS011;62988;55.776;37.544;2023-06-22T04:47:18;6.85;;;3.13;;
74503;SDS011;62988;55.776;37.544;2023-06-22T04:49:43;5.03;;;2.67;;
74503;SDS011;62988;55.776;37.544;2023-06-22T04:52:10;5.77;;;3.00;;
74503;SDS011;62988;55.776;37.544;2023-06-22T04:54:36;7.22;;;2.90;;
74503;SDS011;62988;55.776;37.544;2023-06-22T04:57:02;5.40;;;2.80;;
74503;SDS011;62988;55.776;37.544;2023-06-22T04:59:28;6.78;;;2.90;;
74503;SDS011;62988;55.776;37.544;2023-06-22T05:01:55;8.02;;;2.65;;
74503;SDS011;62988;55.776;37.544;2023-06-22T05:04:24;8.95;;;2.60;;
74503;SDS011;62988;55.776;37.544;2023-06-22T05:06:53;14.05;;;4.25;;
74503;SDS011;62988;55.776;37.544;2023-06-22T05:09:18;9.38;;;5.07;;
74503;SDS011;62988;55.776;37.544;2023-06-22T05:11:44;9.48;;;4.70;;
74503;SDS011;62988;55.776;37.544;2023-06-22T05:14:10;7.53;;;3.78;;
74503;SDS011;62988;55.776;37.544;2023-06-22T05:16:36;8.18;;;3.55;;
74503;SDS011;62988;55.776;37.544;2023-06-22T05:19:01;7.57;;;3.67;;
74503;SDS011;62988;55.776;37.544;2023-06-22T05:21:28;7.45;;;4.05;;
74503;SDS011;62988;55.776;37.544;2023-06-22T05:23:54;8.03;;;3.50;;
74503;SDS011;62988;55.776;37.544;2023-06-22T05:26:20;6.32;;;3.05;;
74503;SDS011;62988;55.776;37.544;2023-06-22T05:28:46;6.00;;;3.10;;
74503;SDS011;62988;55.776;37.544;2023-06-22T05:31:12;6.97;;;2.83;;
74503;SDS011;62988;55.776;37.544;2023-06-22T05:33:38;6.47;;;3.42;;
74503;SDS011;62988;55.776;37.544;2023-06-22T05:36:03;7.63;;;3.23;;
74503;SDS011;62988;55.776;37.544;2023-06-22T05:38:28;6.35;;;3.60;;
74503;SDS011;62988;55.776;37.544;2023-06-22T05:40:54;6.63;;;3.60;;
74503;SDS011;62988;55.776;37.544;2023-06-22T05:43:19;5.40;;;3.50;;
74503;SDS011;62988;55.776;37.544;2023-06-22T05:45:44;7.37;;;3.53;;
74503;SDS011;62988;55.776;37.544;2023-06-22T05:48:10;5.65;;;3.13;;
74503;SDS011;62988;55.776;37.544;2023-06-22T05:50:36;5.90;;;3.23;;
74503;SDS011;62988;55.776;37.544;2023-06-22T05:53:01;7.78;;;3.53;;
74503;SDS011;62988;55.776;37.544;2023-06-22T05:55:27;8.53;;;3.13;;
74503;SDS011;62988;55.776;37.544;2023-06-22T05:57:52;8.13;;;3.17;;
74503;SDS011;62988;55.776;37.544;2023-06-22T06:00:17;7.18;;;3.30;;
74503;SDS011;62988;55.776;37.544;2023-06-22T06:02:43;9.57;;;3.33;;
74503;SDS011;62988;55.776;37.544;2023-06-22T06:05:09;6.15;;;3.20;;
74503;SDS011;62988;55.776;37.544;2023-06-22T06:07:34;7.07;;;3.28;;
74503;SDS011;62988;55.776;37.544;2023-06-22T06:09:59;10.87;;;3.40;;
74503;SDS011;62988;55.776;37.544;2023-06-22T06:12:25;4.80;;;3.13;;
74503;SDS011;62988;55.776;37.544;2023-06-22T06:14:50;8.77;;;3.33;;
74503;SDS011;62988;55.776;37.544;2023-06-22T06:17:16;5.15;;;3.00;;
74503;SDS011;62988;55.776;37.544;2023-06-22T06:19:41;7.80;;;3.30;;
74503;SDS011;62988;55.776;37.544;2023-06-22T06:22:07;9.87;;;3.93;;
74503;SDS011;62988;55.776;37.544;2023-06-22T06:24:32;9.95;;;3.97;;
74503;SDS011;62988;55.776;37.544;2023-06-22T06:26:58;5.20;;;2.73;;
74503;SDS011;62988;55.776;37.544;2023-06-22T06:29:23;6.50;;;2.93;;
74503;SDS011;62988;55.776;37.544;2023-06-22T06:31:48;8.55;;;3.00;;
74503;SDS011;62988;55.776;37.544;2023-06-22T06:34:14;10.15;;;3.00;;
74503;SDS011;62988;55.776;37.544;2023-06-22T06:36:39;6.93;;;3.20;;
74503;SDS011;62988;55.776;37.544;2023-06-22T06:39:05;7.97;;;2.90;;
74503;SDS011;62988;55.776;37.544;2023-06-22T06:41:30;7.57;;;3.15;;
74503;SDS011;62988;55.776;37.544;2023-06-22T06:43:55;8.00;;;2.90;;
74503;SDS011;62988;55.776;37.544;2023-06-22T06:46:21;6.00;;;3.23;;
74503;SDS011;62988;55.776;37.544;2023-06-22T06:48:46;8.70;;;3.17;;
74503;SDS011;62988;55.776;37.544;2023-06-22T06:51:12;5.40;;;3.28;;
74503;SDS011;62988;55.776;37.544;2023-06-22T06:53:37;5.23;;;2.90;;
74503;SDS011;62988;55.776;37.544;2023-06-22T06:56:03;7.82;;;3.60;;
74503;SDS011;62988;55.776;37.544;2023-06-22T06:58:30;7.82;;;2.90;;
74503;SDS011;62988;55.776;37.544;2023-06-22T07:00:55;4.82;;;2.72;;
74503;SDS011;62988;55.776;37.544;2023-06-22T07:03:21;5.50;;;2.60;;
74503;SDS011;62988;55.776;37.544;2023-06-22T07:05:46;8.97;;;3.27;;
74503;SDS011;62988;55.776;37.544;2023-06-22T07:08:11;4.73;;;2.57;;
74503;SDS011;62988;55.776;37.544;2023-06-22T07:10:36;4.50;;;2.50;;
74503;SDS011;62988;55.776;37.544;2023-06-22T07:13:02;7.10;;;3.07;;
74503;SDS011;62988;55.776;37.544;2023-06-22T07:15:27;5.00;;;2.85;;
74503;SDS011;62988;55.776;37.544;2023-06-22T07:17:53;5.17;;;2.70;;
74503;SDS011;62988;55.776;37.544;2023-06-22T07:20:18;4.30;;;2.63;;
74503;SDS011;62988;55.776;37.544;2023-06-22T07:22:44;13.52;;;2.38;;
74503;SDS011;62988;55.776;37.544;2023-06-22T07:25:10;5.27;;;2.67;;
74503;SDS011;62988;55.776;37.544;2023-06-22T07:27:39;5.97;;;2.83;;
74503;SDS011;62988;55.776;37.544;2023-06-22T07:30:09;3.78;;;2.40;;
74503;SDS011;62988;55.776;37.544;2023-06-22T07:32:34;6.32;;;2.80;;
74503;SDS011;62988;55.776;37.544;2023-06-22T07:35:00;5.40;;;3.10;;
74503;SDS011;62988;55.776;37.544;2023-06-22T07:37:26;8.30;;;2.72;;
74503;SDS011;62988;55.776;37.544;2023-06-22T07:39:52;3.90;;;2.67;;
74503;SDS011;62988;55.776;37.544;2023-06-22T07:42:19;3.58;;;2.53;;
74503;SDS011;62988;55.776;37.544;2023-06-22T07:44:44;9.43;;;3.50;;
74503;SDS011;62988;55.776;37.544;2023-06-22T07:47:09;6.97;;;2.58;;
74503;SDS011;62988;55.776;37.544;2023-06-22T07:49:35;6.57;;;2.97;;
74503;SDS011;62988;55.776;37.544;2023-06-22T07:52:00;6.07;;;3.17;;
74503;SDS011;62988;55.776;37.544;2023-06-22T07:54:26;4.97;;;2.90;;
74503;SDS011;62988;55.776;37.544;2023-06-22T07:56:52;6.10;;;3.17;;
74503;SDS011;62988;55.776;37.544;2023-06-22T07:59:17;16.63;;;6.80;;
74503;SDS011;62988;55.776;37.544;2023-06-22T08:01:43;5.40;;;2.53;;
74503;SDS011;62988;55.776;37.544;2023-06-22T08:04:08;6.13;;;2.53;;
74503;SDS011;62988;55.776;37.544;2023-06-22T08:06:33;10.80;;;3.20;;
74503;SDS011;62988;55.776;37.544;2023-06-22T08:08:59;6.33;;;2.97;;
74503;SDS011;62988;55.776;37.544;2023-06-22T08:11:24;6.53;;;2.67;;
74503;SDS011;62988;55.776;37.544;2023-06-22T08:13:50;4.78;;;3.08;;
74503;SDS011;62988;55.776;37.544;2023-06-22T08:16:16;6.03;;;2.58;;
74503;SDS011;62988;55.776;37.544;2023-06-22T08:18:41;8.43;;;3.25;;
74503;SDS011;62988;55.776;37.544;2023-06-22T08:21:06;4.80;;;3.00;;
74503;SDS011;62988;55.776;37.544;2023-06-22T08:23:32;4.30;;;2.40;;
74503;SDS011;62988;55.776;37.544;2023-06-22T08:25:57;5.67;;;2.90;;
74503;SDS011;62988;55.776;37.544;2023-06-22T08:28:22;8.82;;;3.13;;
74503;SDS011;62988;55.776;37.544;2023-06-22T08:30:48;7.43;;;2.70;;
74503;SDS011;62988;55.776;37.544;2023-06-22T08:33:13;5.90;;;2.73;;
74503;SDS011;62988;55.776;37.544;2023-06-22T08:35:38;5.20;;;2.78;;
74503;SDS011;62988;55.776;37.544;2023-06-22T08:38:04;6.82;;;3.35;;
74503;SDS011;62988;55.776;37.544;2023-06-22T08:40:29;6.10;;;2.90;;
74503;SDS011;62988;55.776;37.544;2023-06-22T08:42:55;8.82;;;2.70;;
74503;SDS011;62988;55.776;37.544;2023-06-22T08:45:20;6.10;;;2.80;;
74503;SDS011;62988;55.776;37.544;2023-06-22T08:47:46;5.03;;;2.80;;
74503;SDS011;62988;55.776;37.544;2023-06-22T08:50:11;7.27;;;3.13;;
74503;SDS011;62988;55.776;37.544;2023-06-22T08:52:37;7.55;;;2.80;;
74503;SDS011;62988;55.776;37.544;2023-06-22T08:55:03;6.97;;;3.13;;
74503;SDS011;62988;55.776;37.544;2023-06-22T08:57:29;9.68;;;2.65;;
74503;SDS011;62988;55.776;37.544;2023-06-22T08:59:55;8.90;;;3.10;;
74503;SDS011;62988;55.776;37.544;2023-06-22T09:02:23;5.18;;;2.83;;
74503;SDS011;62988;55.776;37.544;2023-06-22T09:04:48;6.40;;;2.55;;
74503;SDS011;62988;55.776;37.544;2023-06-22T09:07:20;5.60;;;2.85;;
74503;SDS011;62988;55.776;37.544;2023-06-22T09:09:47;6.72;;;3.00;;
74503;SDS011;62988;55.776;37.544;2023-06-22T09:12:13;4.10;;;2.58;;
74503;SDS011;62988;55.776;37.544;2023-06-22T09:14:38;6.40;;;2.97;;
74503;SDS011;62988;55.776;37.544;2023-06-22T09:17:03;5.23;;;2.90;;
74503;SDS011;62988;55.776;37.544;2023-06-22T09:19:29;4.22;;;2.75;;
74503;SDS011;62988;55.776;37.544;2023-06-22T09:21:54;11.07;;;3.30;;
74503;SDS011;62988;55.776;37.544;2023-06-22T09:24:19;10.03;;;3.20;;
74503;SDS011;62988;55.776;37.544;2023-06-22T09:26:45;7.60;;;3.57;;
74503;SDS011;62988;55.776;37.544;2023-06-22T09:29:10;5.00;;;2.90;;
74503;SDS011;62988;55.776;37.544;2023-06-22T09:31:35;6.90;;;3.10;;
74503;SDS011;62988;55.776;37.544;2023-06-22T09:34:01;5.70;;;3.30;;
74503;SDS011;62988;55.776;37.544;2023-06-22T09:36:26;5.15;;;3.00;;
74503;SDS011;62988;55.776;37.544;2023-06-22T09:38:51;6.67;;;2.87;;
74503;SDS011;62988;55.776;37.544;2023-06-22T09:41:21;5.75;;;3.00;;
74503;SDS011;62988;55.776;37.544;2023-06-22T09:43:46;7.93;;;2.88;;
74503;SDS011;62988;55.776;37.544;2023-06-22T09:46:13;5.40;;;2.85;;
74503;SDS011;62988;55.776;37.544;2023-06-22T09:48:38;9.53;;;3.23;;
74503;SDS011;62988;55.776;37.544;2023-06-22T09:51:03;4.97;;;3.13;;
74503;SDS011;62988;55.776;37.544;2023-06-22T09:53:29;6.97;;;3.27;;
74503;SDS011;62988;55.776;37.544;2023-06-22T09:55:54;5.27;;;3.30;;
74503;SDS011;62988;55.776;37.544;2023-06-22T09:58:19;6.13;;;3.23;;
74503;SDS011;62988;55.776;37.544;2023-06-22T10:00:44;7.57;;;3.37;;
74503;SDS011;62988;55.776;37.544;2023-06-22T10:03:10;4.45;;;2.97;;
74503;SDS011;62988;55.776;37.544;2023-06-22T10:05:35;4.40;;;2.70;;
74503;SDS011;62988;55.776;37.544;2023-06-22T10:08:00;6.67;;;3.27;;
74503;SDS011;62988;55.776;37.544;2023-06-22T10:10:26;5.90;;;3.17;;
74503;SDS011;62988;55.776;37.544;2023-06-22T10:12:57;7.50;;;3.27;;
74503;SDS011;62988;55.776;37.544;2023-06-22T10:15:23;9.52;;;2.67;;
74503;SDS011;62988;55.776;37.544;2023-06-22T10:17:48;5.40;;;3.38;;
74503;SDS011;62988;55.776;37.544;2023-06-22T10:20:14;6.68;;;2.70;;
74503;SDS011;62988;55.776;37.544;2023-06-22T10:22:40;5.78;;;3.28;;
74503;SDS011;62988;55.776;37.544;2023-06-22T10:25:06;8.68;;;3.42;;
74503;SDS011;62988;55.776;37.544;2023-06-22T10:27:31;7.78;;;3.80;;
74503;SDS011;62988;55.776;37.544;2023-06-22T10:29:57;12.27;;;3.53;;
74503;SDS011;62988;55.776;37.544;2023-06-22T10:32:22;5.40;;;3.25;;
74503;SDS011;62988;55.776;37.544;2023-06-22T10:34:48;10.17;;;3.47;;
74503;SDS011;62988;55.776;37.544;2023-06-22T10:37:13;12.77;;;3.43;;
74503;SDS011;62988;55.776;37.544;2023-06-22T10:39:38;9.83;;;4.20;;
74503;SDS011;62988;55.776;37.544;2023-06-22T10:42:04;6.23;;;3.87;;
74503;SDS011;62988;55.776;37.544;2023-06-22T10:44:29;5.10;;;3.28;;
74503;SDS011;62988;55.776;37.544;2023-06-22T10:46:54;4.97;;;3.33;;
74503;SDS011;62988;55.776;37.544;2023-06-22T10:49:20;7.60;;;3.70;;
74503;SDS011;62988;55.776;37.544;2023-06-22T10:51:45;6.50;;;3.43;;
74503;SDS011;62988;55.776;37.544;2023-06-22T10:54:10;6.07;;;3.53;;
74503;SDS011;62988;55.776;37.544;2023-06-22T10:56:38;12.82;;;3.47;;
74503;SDS011;62988;55.776;37.544;2023-06-22T10:59:04;6.95;;;3.42;;
74503;SDS011;62988;55.776;37.544;2023-06-22T11:01:29;9.33;;;4.10;;
74503;SDS011;62988;55.776;37.544;2023-06-22T11:03:56;9.20;;;3.60;;
74503;SDS011;62988;55.776;37.544;2023-06-22T11:06:21;6.10;;;3.92;;
74503;SDS011;62988;55.776;37.544;2023-06-22T11:08:46;6.07;;;3.73;;
74503;SDS011;62988;55.776;37.544;2023-06-22T11:11:12;9.68;;;3.42;;
74503;SDS011;62988;55.776;37.544;2023-06-22T11:13:37;6.70;;;3.50;;
74503;SDS011;62988;55.776;37.544;2023-06-22T11:16:03;7.63;;;3.72;;
74503;SDS011;62988;55.776;37.544;2023-06-22T11:18:28;5.88;;;4.00;;
74503;SDS011;62988;55.776;37.544;2023-06-22T11:20:53;7.30;;;3.20;;
74503;SDS011;62988;55.776;37.544;2023-06-22T11:23:19;6.30;;;3.13;;
74503;SDS011;62988;55.776;37.544;2023-06-22T11:25:44;4.93;;;3.50;;
74503;SDS011;62988;55.776;37.544;2023-06-22T11:28:11;6.15;;;3.53;;
74503;SDS011;62988;55.776;37.544;2023-06-22T11:30:36;10.98;;;3.60;;
74503;SDS011;62988;55.776;37.544;2023-06-22T11:33:02;9.07;;;3.83;;
74503;SDS011;62988;55.776;37.544;2023-06-22T11:35:27;6.27;;;3.17;;
74503;SDS011;62988;55.776;37.544;2023-06-22T11:37:52;6.30;;;4.00;;
74503;SDS011;62988;55.776;37.544;2023-06-22T11:40:18;7.73;;;3.67;;
74503;SDS011;62988;55.776;37.544;2023-06-22T11:42:43;7.85;;;4.13;;
74503;SDS011;62988;55.776;37.544;2023-06-22T11:45:08;7.40;;;4.10;;
74503;SDS011;62988;55.776;37.544;2023-06-22T11:47:34;5.53;;;3.60;;
74503;SDS011;62988;55.776;37.544;2023-06-22T11:49:59;7.72;;;3.53;;
74503;SDS011;62988;55.776;37.544;2023-06-22T11:52:24;5.80;;;3.23;;
74503;SDS011;62988;55.776;37.544;2023-06-22T11:54:52;7.20;;;4.00;;
74503;SDS011;62988;55.776;37.544;2023-06-22T11:57:17;7.67;;;4.03;;
74503;SDS011;62988;55.776;37.544;2023-06-22T11:59:43;8.00;;;3.83;;
74503;SDS011;62988;55.776;37.544;2023-06-22T12:02:08;7.97;;;3.67;;
74503;SDS011;62988;55.776;37.544;2023-06-22T12:04:34;5.35;;;3.97;;
74503;SDS011;62988;55.776;37.544;2023-06-22T12:07:00;7.72;;;4.10;;
74503;SDS011;62988;55.776;37.544;2023-06-22T12:09:25;12.05;;;3.55;;
74503;SDS011;62988;55.776;37.544;2023-06-22T12:11:50;6.63;;;3.77;;
74503;SDS011;62988;55.776;37.544;2023-06-22T12:14:16;4.07;;;3.13;;
74503;SDS011;62988;55.776;37.544;2023-06-22T12:16:41;6.73;;;3.60;;
74503;SDS011;62988;55.776;37.544;2023-06-22T12:19:08;6.35;;;3.58;;
74503;SDS011;62988;55.776;37.544;2023-06-22T12:21:34;10.40;;;3.97;;
74503;SDS011;62988;55.776;37.544;2023-06-22T12:23:59;5.33;;;3.60;;
74503;SDS011;62988;55.776;37.544;2023-06-22T12:26:24;6.53;;;3.60;;
74503;SDS011;62988;55.776;37.544;2023-06-22T12:28:50;5.83;;;3.70;;
74503;SDS011;62988;55.776;37.544;2023-06-22T12:31:15;5.97;;;3.67;;
74503;SDS011;62988;55.776;37.544;2023-06-22T12:33:40;7.13;;;3.72;;
74503;SDS011;62988;55.776;37.544;2023-06-22T12:36:06;6.25;;;3.53;;
74503;SDS011;62988;55.776;37.544;2023-06-22T12:38:32;5.80;;;3.60;;
74503;SDS011;62988;55.776;37.544;2023-06-22T12:40:57;8.67;;;3.90;;
74503;SDS011;62988;55.776;37.544;2023-06-22T12:43:22;7.87;;;3.70;;
74503;SDS011;62988;55.776;37.544;2023-06-22T12:45:48;7.20;;;3.60;;
74503;SDS011;62988;55.776;37.544;2023-06-22T12:48:13;6.93;;;3.35;;
74503;SDS011;62988;55.776;37.544;2023-06-22T12:50:38;11.95;;;3.55;;
74503;SDS011;62988;55.776;37.544;2023-06-22T12:53:04;10.43;;;3.55;;
74503;SDS011;62988;55.776;37.544;2023-06-22T12:55:31;11.48;;;4.30;;
74503;SDS011;62988;55.776;37.544;2023-06-22T12:57:56;7.87;;;4.07;;
74503;SDS011;62988;55.776;37.544;2023-06-22T13:00:21;4.35;;;3.53;;
74503;SDS011;62988;55.776;37.544;2023-06-22T13:02:47;6.77;;;3.60;;
74503;SDS011;62988;55.776;37.544;2023-06-22T13:05:12;4.97;;;3.10;;
74503;SDS011;62988;55.776;37.544;2023-06-22T13:07:37;5.70;;;3.57;;
74503;SDS011;62988;55.776;37.544;2023-06-22T13:10:03;9.67;;;3.47;;
74503;SDS011;62988;55.776;37.544;2023-06-22T13:12:28;5.32;;;3.60;;
74503;SDS011;62988;55.776;37.544;2023-06-22T13:14:54;9.48;;;3.70;;
74503;SDS011;62988;55.776;37.544;2023-06-22T13:17:19;6.50;;;3.50;;
74503;SDS011;62988;55.776;37.544;2023-06-22T13:19:44;7.27;;;3.50;;
74503;SDS011;62988;55.776;37.544;2023-06-22T13:22:26;10.50;;;3.37;;
74503;SDS011;62988;55.776;37.544;2023-06-22T13:24:51;5.40;;;3.63;;
74503;SDS011;62988;55.776;37.544;2023-06-22T13:27:17;7.33;;;4.30;;
74503;SDS011;62988;55.776;37.544;2023-06-22T13:29:42;7.07;;;3.90;;
74503;SDS011;62988;55.776;37.544;2023-06-22T13:32:07;9.47;;;3.70;;
74503;SDS011;62988;55.776;37.544;2023-06-22T13:34:33;6.13;;;3.45;;
74503;SDS011;62988;55.776;37.544;2023-06-22T13:36:58;6.60;;;3.70;;
74503;SDS011;62988;55.776;37.544;2023-06-22T13:39:23;6.80;;;3.80;;
74503;SDS011;62988;55.776;37.544;2023-06-22T13:41:49;9.45;;;3.60;;
74503;SDS011;62988;55.776;37.544;2023-06-22T13:44:14;8.13;;;3.77;;
74503;SDS011;62988;55.776;37.544;2023-06-22T13:46:39;5.90;;;4.17;;
74503;SDS011;62988;55.776;37.544;2023-06-22T13:49:05;5.20;;;3.30;;
74503;SDS011;62988;55.776;37.544;2023-06-22T13:51:30;10.37;;;3.70;;
74503;SDS011;62988;55.776;37.544;2023-06-22T13:53:55;6.80;;;3.80;;
74503;SDS011;62988;55.776;37.544;2023-06-22T13:56:21;8.03;;;3.87;;
74503;SDS011;62988;55.776;37.544;2023-06-22T13:58:46;8.70;;;3.63;;
74503;SDS011;62988;55.776;37.544;2023-06-22T14:01:13;10.98;;;3.97;;
74503;SDS011;62988;55.776;37.544;2023-06-22T14:03:38;5.83;;;3.73;;
74503;SDS011;62988;55.776;37.544;2023-06-22T14:06:04;6.00;;;3.63;;
74503;SDS011;62988;55.776;37.544;2023-06-22T14:08:29;5.18;;;3.50;;
74503;SDS011;62988;55.776;37.544;2023-06-22T14:10:54;6.57;;;3.67;;
74503;SDS011;62988;55.776;37.544;2023-06-22T14:13:20;6.82;;;3.60;;
74503;SDS011;62988;55.776;37.544;2023-06-22T14:15:45;6.70;;;3.45;;
74503;SDS011;62988;55.776;37.544;2023-06-22T14:18:13;6.50;;;4.13;;
74503;SDS011;62988;55.776;37.544;2023-06-22T14:20:39;4.93;;;3.35;;
74503;SDS011;62988;55.776;37.544;2023-06-22T14:23:05;9.00;;;3.85;;
74503;SDS011;62988;55.776;37.544;2023-06-22T14:25:30;6.65;;;3.45;;
74503;SDS011;62988;55.776;37.544;2023-06-22T14:27:55;5.37;;;3.80;;
74503;SDS011;62988;55.776;37.544;2023-06-22T14:30:21;6.37;;;4.27;;
74503;SDS011;62988;55.776;37.544;2023-06-22T14:32:46;7.50;;;3.53;;
74503;SDS011;62988;55.776;37.544;2023-06-22T14:35:11;5.60;;;3.73;;